Latest Weather Observations for Lockhart River

IDQ60801

Issued at 12:02 pm EST Thursday 8 December 2016 (issued every 30 minutes, with the page automatically refreshed every 10 minutes)

About weather observations | Map of weather stations | Latest weather observations for QLD | Other Formats
Station Details ID: 028008 Name: LOCKHART RIVER AIRPORT Lat: -12.79 Lon: 143.30 Height: 18.5 m
Data from the previous 72 hours. | See also: Recent months at Lockhart River
Date/Time
EST
Temp
°C
App
Temp
°C
Dew
Point
°C
Rel
Hum
%
Delta-T
°C
Wind Press
QNH
hPa
Press
MSL
hPa
Rain since
9am
mm
Dir  Spd
km/h
Gust
km/h
Spd
kts
Gust
kts
08/11:30am 31.1 32.9 23.5 64 5.3 E 20 30 11 16 1008.9 1008.8 0.2
08/11:00am 30.8 31.6 23.2 64 5.2 ESE 24 32 13 17 1009.2 1009.1 0.2
08/10:30am 30.4 31.5 23.6 67 4.7 ESE 24 39 13 21 1009.2 1009.1 0.0
08/10:00am 29.2 32.9 24.5 76 3.3 E 13 20 7 11 1009.4 1009.3 0.0
08/09:30am 29.9 31.9 23.6 69 4.3 E 19 30 10 16 1009.6 1009.5 0.0
08/09:00am 30.1 32.4 23.5 67 4.6 E 17 24 9 13 1009.6 1009.5 0.0
08/08:30am 29.2 30.8 22.9 69 4.3 ESE 19 28 10 15 1009.7 1009.6 0.0
08/08:00am 27.1 31.7 24.2 84 2.0 W 7 9 4 5 1009.6 1009.5 0.0
08/07:30am 26.6 31.9 23.7 84 2.0 SW 2 9 1 5 1009.6 1009.5 0.0
08/07:00am 25.7 30.6 23.6 88 1.4 W 4 6 2 3 1009.4 1009.3 0.0
08/06:30am 25.4 31.0 23.6 90 1.2 CALM 0 6 0 3 1009.2 1009.1 0.0
08/06:00am 24.9 30.2 23.0 89 1.3 CALM 0 0 0 0 1008.7 1008.6 0.0
08/05:30am 24.7 29.9 22.8 89 1.3 CALM 0 0 0 0 1008.1 1008.0 0.0
08/05:14am 24.9 29.8 23.0 89 1.3 N 2 6 1 3 1008.0 1007.9 0.0
08/05:00am 25.0 29.6 23.1 89 1.3 W 4 6 2 3 1007.9 1007.8 0.0
08/04:30am 25.1 29.0 23.0 88 1.4 E 7 9 4 5 1007.7 1007.6 0.0
08/04:21am 25.2 29.3 22.9 87 1.6 SE 6 7 3 4 1007.7 1007.6 0.0
08/04:09am 25.3 29.2 23.0 87 1.6 S 7 9 4 5 1007.7 1007.6 0.0
08/04:00am 25.3 28.9 23.0 87 1.6 SSW 9 11 5 6 1007.8 1007.7 0.0
08/03:30am 26.9 30.4 23.6 82 2.3 SE 11 15 6 8 1007.6 1007.5 0.0
08/03:16am 27.1 30.2 23.6 81 2.4 SE 13 19 7 10 1007.6 1007.5 0.0
08/03:00am 27.3 30.4 23.5 80 2.6 ESE 13 20 7 11 1007.7 1007.6 0.0
08/02:33am 27.2 30.6 23.4 80 2.6 ESE 11 19 6 10 1007.9 1007.8 0.0
08/02:30am 27.2 30.2 23.4 80 2.6 ESE 13 19 7 10 1007.9 1007.8 0.0
08/02:00am 27.2 29.9 23.4 80 2.6 ESE 15 20 8 11 1008.1 1008.0 0.0
08/01:30am 27.2 29.9 23.4 80 2.6 ESE 15 24 8 13 1008.4 1008.3 0.0
08/01:17am 27.3 30.4 23.5 80 2.6 ESE 13 22 7 12 1008.6 1008.5 0.0
08/01:00am 27.3 30.4 23.5 80 2.6 ESE 13 17 7 9 1008.8 1008.7 0.0
08/12:30am 27.5 29.3 23.3 78 2.9 ESE 19 26 10 14 1009.3 1009.2 0.0
08/12:00am 27.8 31.1 23.8 79 2.8 ESE 13 20 7 11 1009.7 1009.6 0.0
 
Date/Time
EST
Temp
°C
App
Temp
°C
Dew
Point
°C
Rel
Hum
%
Delta-T
°C
Wind Press
QNH
hPa
Press
MSL
hPa
Rain since
9am
mm
Dir  Spd
km/h
Gust
km/h
Spd
kts
Gust
kts
07/11:57pm 27.8 30.9 23.6 78 2.9 ESE 13 20 7 11 1009.8 1009.7 0.0
07/11:30pm 27.7 30.7 23.3 77 3.0 ESE 13 19 7 10 1010.2 1010.1 0.0
07/11:00pm 27.5 31.3 23.5 79 2.7 ESE 9 9 5 5 1010.3 1010.2 0.0
07/10:30pm 27.3 30.9 23.1 78 2.9 ESE 9 15 5 8 1010.4 1010.3 0.0
07/10:00pm 27.3 30.7 23.3 79 2.7 ESE 11 15 6 8 1010.4 1010.3 0.0
07/09:30pm 27.3 30.7 23.3 79 2.7 ESE 11 15 6 8 1010.3 1010.2 0.0
07/09:00pm 27.2 31.1 23.0 78 2.9 ESE 7 11 4 6 1010.0 1009.9 0.0
07/08:30pm 27.2 30.7 22.8 77 3.0 ESE 9 13 5 7 1009.7 1009.6 0.0
07/08:00pm 27.4 30.5 22.8 76 3.1 ESE 11 15 6 8 1009.6 1009.5 0.0
07/07:30pm 27.9 30.5 22.6 73 3.6 SE 13 19 7 10 1009.2 1009.1 0.0
07/07:00pm 27.9 29.5 22.2 71 3.8 ESE 17 24 9 13 1008.9 1008.8 0.0
07/06:30pm 28.6 30.2 22.1 68 4.4 ESE 17 24 9 13 1008.7 1008.6 0.0
07/06:00pm 29.1 30.5 21.8 64 4.9 ESE 17 26 9 14 1008.3 1008.2 0.0
07/05:30pm 29.2 30.0 21.4 63 5.2 ESE 19 26 10 14 1008.1 1008.0 0.0
07/05:00pm 29.9 30.6 21.6 61 5.6 E 20 28 11 15 1007.9 1007.8 0.0
07/04:30pm 29.9 30.7 21.3 60 5.8 ESE 19 30 10 16 1007.8 1007.7 0.0
07/04:00pm 30.9 31.5 21.1 56 6.6 ESE 19 28 10 15 1007.8 1007.7 0.0
07/03:30pm 30.3 30.4 21.1 58 6.2 ESE 22 32 12 17 1008.1 1008.0 0.0
07/03:00pm 30.4 30.0 20.9 57 6.3 ESE 24 39 13 21 1008.1 1008.0 0.0
07/02:30pm 30.7 30.9 20.6 54 6.7 ESE 20 32 11 17 1008.5 1008.4 0.0
07/02:00pm 31.3 31.0 20.3 52 7.3 E 22 32 12 17 1008.7 1008.6 0.0
07/01:30pm 31.1 30.7 19.4 49 7.7 E 20 33 11 18 1009.2 1009.1 0.0
07/01:00pm 31.3 30.5 19.3 49 7.9 E 22 35 12 19 1009.5 1009.4 0.0
07/12:30pm 31.1 30.7 20.1 52 7.3 E 22 32 12 17 1009.9 1009.8 0.0
07/12:00pm 31.0 30.5 20.0 52 7.3 E 22 32 12 17 1010.0 1009.9 0.0
07/11:30am 31.4 30.9 20.7 53 7.1 E 24 37 13 20 1010.3 1010.2 0.0
07/11:00am 30.3 30.0 21.1 58 6.2 E 24 35 13 19 1010.5 1010.4 0.0
07/10:30am 30.7 31.8 22.0 59 5.9 E 19 28 10 15 1011.0 1010.9 0.0
07/10:00am 30.2 30.9 21.6 60 5.8 ESE 20 33 11 18 1011.0 1010.9 0.0
07/09:30am 30.2 30.8 20.2 55 6.6 E 17 28 9 15 1011.1 1011.0 0.0
07/09:00am 29.7 30.2 20.8 58 5.9 ESE 19 30 10 16 1010.8 1010.7 0.0
07/08:30am 29.0 29.6 21.0 62 5.3 E 19 26 10 14 1010.6 1010.5 0.0
07/08:00am 27.5 30.7 21.3 69 4.1 SE 6 11 3 6 1010.6 1010.5 0.0
07/07:30am 26.1 29.3 20.4 71 3.7 ESE 4 9 2 5 1010.4 1010.3 0.0
07/07:00am 25.5 29.6 20.7 75 3.2 CALM 0 0 0 0 1010.3 1010.2 0.0
07/06:30am 23.6 27.6 20.5 83 2.0 CALM 0 0 0 0 1010.2 1010.1 0.0
07/06:00am 23.3 27.0 19.9 81 2.2 CALM 0 0 0 0 1009.8 1009.7 0.0
07/05:30am 24.4 27.1 20.3 78 2.7 SSW 6 9 3 5 1009.3 1009.2 0.0
07/05:00am 25.9 28.1 20.5 72 3.5 SSE 9 13 5 7 1009.0 1008.9 0.0
07/04:30am 26.4 27.9 20.5 70 3.9 ESE 13 19 7 10 1008.7 1008.6 0.0
07/04:00am 26.6 27.7 20.4 69 4.1 ESE 15 22 8 12 1008.5 1008.4 0.0
07/03:30am 26.5 28.0 20.6 70 3.9 ESE 13 20 7 11 1008.4 1008.3 0.0
07/03:00am 26.7 27.4 20.5 69 4.1 ESE 17 28 9 15 1008.4 1008.3 0.0
07/02:30am 26.7 27.4 20.5 69 4.1 ESE 17 24 9 13 1008.3 1008.2 0.0
07/02:00am 26.9 27.2 20.5 68 4.2 ESE 19 28 10 15 1008.4 1008.3 0.0
07/01:30am 27.0 27.9 20.8 69 4.1 ESE 17 26 9 14 1008.5 1008.4 0.0
07/01:00am 26.9 28.1 21.4 72 3.7 ESE 17 24 9 13 1008.7 1008.6 0.0
07/12:30am 27.1 28.2 21.2 70 3.9 ESE 17 24 9 13 1009.2 1009.1 0.0
07/12:00am 27.2 28.5 20.8 68 4.2 ESE 15 26 8 14 1009.7 1009.6 0.0
 
Date/Time
EST
Temp
°C
App
Temp
°C
Dew
Point
°C
Rel
Hum
%
Delta-T
°C
Wind Press
QNH
hPa
Press
MSL
hPa
Rain since
9am
mm
Dir  Spd
km/h
Gust
km/h
Spd
kts
Gust
kts
06/11:30pm 27.3 28.7 21.1 69 4.1 ESE 15 26 8 14 1010.1 1010.0 0.0
06/11:00pm 27.3 28.3 21.1 69 4.1 ESE 17 30 9 16 1010.3 1010.2 0.0
06/10:30pm 27.3 28.3 21.8 72 3.7 ESE 19 28 10 15 1010.2 1010.1 0.0
06/10:00pm 27.4 28.7 21.7 71 3.8 ESE 17 24 9 13 1010.3 1010.2 0.0
06/09:30pm 27.5 28.4 22.0 72 3.7 ESE 20 33 11 18 1010.2 1010.1 0.0
06/09:00pm 27.5 29.0 22.0 72 3.7 ESE 17 22 9 12 1010.2 1010.1 0.0
06/08:30pm 27.7 29.0 22.4 73 3.6 ESE 19 26 10 14 1009.8 1009.7 0.0
06/08:00pm 27.7 29.8 22.4 73 3.6 ESE 15 19 8 10 1009.6 1009.5 0.0
06/07:30pm 27.7 29.8 22.4 73 3.6 ESE 15 22 8 12 1009.4 1009.3 0.0
06/07:00pm 28.0 28.8 22.5 72 3.7 SE 22 30 12 16 1009.1 1009.0 0.0
06/06:30pm 28.2 29.5 22.4 71 3.9 ESE 19 28 10 15 1008.9 1008.8 0.0
06/06:00pm 28.7 29.6 22.0 67 4.5 ESE 20 32 11 17 1008.9 1008.8 0.0
06/05:30pm 29.6 30.9 22.3 65 5.0 ESE 19 33 10 18 1008.5 1008.4 0.0
06/05:00pm 29.6 29.3 21.8 63 5.3 ESE 26 41 14 22 1008.5 1008.4 0.0
06/04:30pm 30.4 30.3 22.3 62 5.5 E 26 39 14 21 1008.3 1008.2 0.0
06/04:00pm 30.5 30.7 22.7 63 5.3 E 26 37 14 20 1008.4 1008.3 0.0
06/03:30pm 30.6 30.7 21.9 59 5.9 E 24 39 13 21 1008.6 1008.5 0.0
06/03:00pm 31.2 31.6 22.5 60 5.9 ESE 24 37 13 20 1008.6 1008.5 0.0
06/02:30pm 31.5 30.8 21.1 54 7.0 ESE 26 37 14 20 1008.9 1008.8 0.0
06/02:00pm 30.1 29.3 21.7 60 5.7 E 28 37 15 20 1009.2 1009.1 0.0
06/01:30pm 30.8 31.0 21.3 57 6.4 E 22 37 12 20 1009.6 1009.5 0.0
06/01:00pm 31.7 31.6 21.5 54 6.9 ESE 24 37 13 20 1009.9 1009.8 0.0
06/12:30pm 30.8 30.4 21.0 56 6.6 E 24 33 13 18 1010.3 1010.2 0.0
06/12:00pm 31.7 31.6 21.5 54 6.9 ESE 24 33 13 18 1010.5 1010.4 0.0
06/11:30am 31.2 30.9 21.1 55 6.8 E 24 37 13 20 1011.0 1010.9 0.0
06/11:00am 30.8 30.4 21.0 56 6.6 ESE 24 33 13 18 1011.4 1011.3 0.0
06/10:30am 30.9 31.3 21.7 58 6.2 ESE 22 37 12 20 1011.8 1011.7 0.0
06/10:00am 30.3 30.4 21.9 60 5.7 ESE 24 33 13 18 1012.1 1012.0 0.0
06/09:30am 30.3 30.7 21.7 60 5.8 E 22 35 12 19 1012.2 1012.1 0.0
06/09:00am 30.3 31.1 21.7 60 5.8 ESE 20 33 11 18 1012.1 1012.0 0.4
06/08:30am 29.7 30.4 21.6 61 5.4 E 20 32 11 17 1011.9 1011.8 0.4
06/08:00am 29.4 30.2 21.4 62 5.4 ESE 19 37 10 20 1011.8 1011.7 0.4
06/07:30am 28.7 29.4 21.5 65 4.8 ESE 20 33 11 18 1011.5 1011.4 0.4
06/07:00am 28.3 30.6 22.1 69 4.2 ESE 13 24 7 13 1011.3 1011.2 0.4
06/06:30am 27.4 29.0 21.4 70 4.0 E 15 22 8 12 1011.1 1011.0 0.4
06/06:00am 26.9 28.0 21.2 71 3.8 ESE 17 24 9 13 1010.5 1010.4 0.4
06/05:30am 27.0 27.6 21.1 70 3.9 ESE 19 28 10 15 1010.2 1010.1 0.4
06/05:00am 26.6 28.1 22.0 76 3.1 ESE 17 24 9 13 1009.7 1009.6 0.4
06/04:30am 26.4 28.2 21.8 76 3.1 ESE 15 20 8 11 1009.3 1009.2 0.4
06/04:00am 26.4 28.1 21.6 75 3.2 ESE 15 20 8 11 1009.2 1009.1 0.4
06/03:30am 26.4 28.3 21.4 74 3.3 SE 13 19 7 10 1009.3 1009.2 0.4
06/03:00am 26.7 27.2 21.2 72 3.7 ESE 20 28 11 15 1009.1 1009.0 0.4
06/02:30am 26.7 27.1 21.0 71 3.8 ESE 20 28 11 15 1009.0 1008.9 0.4
06/02:00am 27.2 27.2 21.0 69 4.1 ESE 22 33 12 18 1009.3 1009.2 0.4
06/01:30am 26.9 27.6 21.6 72 3.5 ESE 20 28 11 15 1009.4 1009.3 0.4
06/01:00am 26.8 27.6 21.3 72 3.7 ESE 19 28 10 15 1009.6 1009.5 0.4
06/12:30am 26.9 27.7 21.4 72 3.7 ESE 19 30 10 16 1009.9 1009.8 0.4
06/12:00am 27.0 27.8 21.3 71 3.8 ESE 19 28 10 15 1010.1 1010.0 0.4
 
Date/Time
EST
Temp
°C
App
Temp
°C
Dew
Point
°C
Rel
Hum
%
Delta-T
°C
Wind Press
QNH
hPa
Press
MSL
hPa
Rain since
9am
mm
Dir  Spd
km/h
Gust
km/h
Spd
kts
Gust
kts
05/11:30pm 27.2 27.6 21.0 69 4.1 ESE 20 28 11 15 1010.6 1010.5 0.4
05/11:00pm 27.1 28.0 20.9 69 4.1 ESE 17 26 9 14 1010.7 1010.6 0.4
05/10:30pm 27.2 28.1 21.5 71 3.8 ESE 19 26 10 14 1010.8 1010.7 0.4
05/10:00pm 27.1 27.7 21.4 71 3.8 ESE 20 28 11 15 1010.8 1010.7 0.4
05/09:30pm 27.2 27.7 21.2 69 4.0 ESE 20 30 11 16 1010.7 1010.6 0.4
05/09:00pm 27.3 28.1 21.8 72 3.7 ESE 20 28 11 15 1010.5 1010.4 0.4
05/08:30pm 27.6 28.6 22.1 72 3.7 ESE 20 30 11 16 1010.4 1010.3 0.4
05/08:00pm 27.6 28.8 22.1 72 3.7 ESE 19 26 10 14 1010.1 1010.0 0.4
05/07:30pm 27.7 29.3 22.2 72 3.7 ESE 17 24 9 13 1010.0 1009.9 0.4
05/07:00pm 27.8 29.0 22.1 71 3.8 ESE 19 28 10 15 1009.8 1009.7 0.4
05/06:30pm 28.0 29.1 22.0 70 4.0 ESE 19 28 10 15 1009.7 1009.6 0.4
05/06:00pm 28.4 28.9 21.2 65 4.8 ESE 20 30 11 16 1009.5 1009.4 0.4
05/05:30pm 28.6 28.8 21.4 65 4.8 ESE 22 33 12 18 1009.5 1009.4 0.4
05/05:00pm 29.3 29.2 20.7 59 5.7 ESE 22 33 12 18 1009.3 1009.2 0.4
05/04:30pm 30.3 28.7 20.8 56 6.3 ESE 30 43 16 23 1009.2 1009.1 0.4
05/04:00pm 31.2 30.4 21.7 57 6.4 SE 28 39 15 21 1009.2 1009.1 0.4
05/03:40pm 30.9 30.1 21.7 58 6.2 SE 28 48 15 26 1009.3 1009.2 0.4
05/03:30pm 31.1 31.1 21.6 57 6.4 ESE 24 41 13 22 1009.3 1009.2 0.4
05/03:00pm 29.5 28.9 22.0 64 5.1 ESE 28 39 15 21 1009.6 1009.5 0.4
05/02:30pm 28.0 29.3 22.7 73 3.6 ESE 20 30 11 16 1009.8 1009.7 0.4
05/02:00pm 30.4 30.9 22.6 63 5.3 ESE 24 35 13 19 1009.8 1009.7 0.4
05/01:30pm 30.1 30.1 21.7 60 5.7 ESE 24 33 13 18 1009.9 1009.8 0.4
05/01:00pm 30.0 28.6 21.1 59 6.0 ESE 30 39 16 21 1010.1 1010.0 0.4
05/12:30pm 31.3 31.0 22.6 60 5.9 SE 28 39 15 21 1010.5 1010.4 0.4
05/12:17pm 29.4 28.4 21.9 64 5.1 ESE 30 48 16 26 1010.6 1010.5 0.4

Other Formats:

Comma delimited format used in spreadsheet applications
http://www.bom.gov.au/fwo/IDQ60801/IDQ60801.94186.axf

JavaScript Object Notation format (JSON) in row-major order
http://www.bom.gov.au/fwo/IDQ60801/IDQ60801.94186.json